Latest Weather Observations for Melbourne (Olympic Park)

IDV60801

Issued at 11:02 pm EST Saturday 25 May 2019 (issued every 10 minutes, with the page automatically refreshed every 10 minutes)

About weather observations | Map of weather stations | Latest weather observations for VIC | Other Formats
Station Details ID: 086338 Name: MELBOURNE (OLYMPIC PARK) Lat: -37.83 Lon: 144.98 Height: 7.53 m
Data from the previous 72 hours. | See also: Recent months at Melbourne (Olympic Park)
Date/Time
EST
Temp
°C
App
Temp
°C
Dew
Point
°C
Rel
Hum
%
Delta-T
°C
Wind Press
QNH
hPa
Press
MSL
hPa
Rain since
9am
mm
Dir  Spd
km/h
Gust
km/h
Spd
kts
Gust
kts
25/11:00pm 13.1 11.0 8.4 73 2.3 WSW 9 19 5 10 1012.0 1012.0 6.6
25/10:30pm 13.5 11.4 9.6 77 2.0 W 11 20 6 11 1012.0 1012.0 6.6
25/10:00pm 13.3 12.8 10.8 85 1.3 NW 4 13 2 7 1012.1 1012.1 6.6
25/09:30pm 13.6 11.5 11.0 84 1.4 NW 13 20 7 11 1012.1 1012.1 6.4
25/09:00pm 13.2 12.4 11.1 87 1.1 NW 6 11 3 6 1011.6 1011.6 6.4
25/08:30pm 13.1 11.7 11.0 87 1.1 W 9 15 5 8 1011.9 1011.9 6.2
25/08:00pm 13.4 12.2 11.6 89 1.0 WNW 9 13 5 7 1011.7 1011.7 5.8
25/07:35pm 13.5 12.7 11.6 88 1.0 W 7 13 4 7 1011.6 1011.6 5.4
25/07:30pm 13.5 12.7 11.6 88 1.0 WNW 7 15 4 8 1011.6 1011.6 5.4
25/07:16pm 13.7 11.6 11.0 84 1.4 NW 13 20 7 11 1011.5 1011.5 4.8
25/07:00pm 13.8 12.0 11.0 83 1.5 NNW 11 26 6 14 1011.3 1011.3 3.6
25/06:30pm 14.3 12.0 10.3 77 2.1 NW 13 20 7 11 1011.2 1011.2 2.6
25/06:00pm 16.5 14.6 10.6 68 3.1 NW 11 22 6 12 1010.9 1010.9 0.6
25/05:30pm 17.9 15.3 9.3 57 4.5 NNW 13 28 7 15 1010.4 1010.4 0.0
25/05:00pm 18.3 15.2 8.8 54 4.9 N 15 20 8 11 1010.1 1010.1 0.0
25/04:30pm 18.2 14.7 8.7 54 4.9 NNW 17 22 9 12 1010.0 1010.0 0.0
25/04:00pm 18.2 14.3 8.7 54 4.9 NNW 19 30 10 16 1009.9 1009.9 0.0
25/03:30pm 18.6 13.4 8.8 53 5.1 NNW 26 39 14 21 1009.6 1009.6 0.0
25/03:00pm 18.5 14.4 8.7 53 5.1 NNW 20 39 11 21 1010.2 1010.2 0.0
25/02:30pm 18.4 15.6 8.4 52 5.2 NNW 13 30 7 16 1010.5 1010.5 0.0
25/02:00pm 18.3 14.2 8.0 51 5.3 NNW 19 32 10 17 1010.8 1010.8 0.0
25/01:30pm 18.6 14.3 8.0 50 5.4 NNW 20 39 11 21 1011.0 1011.0 0.0
25/01:00pm 19.2 15.0 8.2 49 5.7 NNW 20 39 11 21 1011.3 1011.3 0.0
25/12:30pm 19.2 15.1 7.9 48 5.8 N 19 32 10 17 1011.6 1011.6 0.0
25/12:00pm 19.1 15.5 8.4 50 5.5 NNW 17 28 9 15 1012.0 1012.0 0.0
25/11:30am 18.6 15.1 8.8 53 5.1 NNW 17 24 9 13 1012.5 1012.5 0.0
25/11:00am 17.7 13.6 8.6 55 4.7 NNW 20 32 11 17 1013.0 1013.0 0.0
25/10:30am 17.1 12.7 8.8 58 4.3 N 22 33 12 18 1013.1 1013.1 0.0
25/10:00am 16.8 13.5 9.7 63 3.7 NNW 17 24 9 13 1013.5 1013.5 0.0
25/09:30am 15.8 13.2 9.5 66 3.3 NNW 13 24 7 13 1013.9 1013.9 0.0
25/09:00am 15.6 14.3 9.9 69 3.0 NNW 7 13 4 7 1014.0 1014.0 1.6
25/08:30am 14.4 11.7 10.2 76 2.2 N 15 22 8 12 1013.9 1013.9 1.6
25/08:00am 14.0 11.7 10.6 80 1.8 N 13 19 7 10 1013.6 1013.6 1.6
25/07:30am 14.6 12.3 10.6 77 2.1 N 13 20 7 11 1013.4 1013.4 1.6
25/07:00am 14.8 13.0 10.8 77 2.1 NNW 11 19 6 10 1013.4 1013.4 1.6
25/06:30am 14.9 12.7 10.9 77 2.1 NNW 13 20 7 11 1013.3 1013.3 1.6
25/06:00am 14.9 12.0 10.9 77 2.1 NNW 17 24 9 13 1013.4 1013.4 1.6
25/05:30am 15.0 12.1 11.0 77 2.1 NNW 17 24 9 13 1013.2 1013.2 1.6
25/05:00am 15.0 12.5 11.0 77 2.1 NNW 15 20 8 11 1013.0 1013.0 1.6
25/04:30am 15.3 12.0 10.9 75 2.3 NNW 19 26 10 14 1013.2 1013.2 1.6
25/04:00am 15.4 12.8 10.8 74 2.4 NNW 15 24 8 13 1013.4 1013.4 1.6
25/03:30am 15.4 13.9 10.6 73 2.5 NNW 9 13 5 7 1013.6 1013.6 1.6
25/03:00am 15.4 14.4 10.4 72 2.6 NW 6 11 3 6 1014.0 1014.0 1.6
25/02:30am 15.8 14.6 10.3 70 2.9 WNW 7 9 4 5 1014.0 1014.0 1.6
25/02:00am 16.0 13.7 10.3 69 3.0 NNW 13 19 7 10 1013.9 1013.9 1.6
25/01:30am 16.4 13.7 10.3 67 3.2 N 15 20 8 11 1013.9 1013.9 1.6
25/01:00am 16.7 13.6 10.3 66 3.4 N 17 22 9 12 1014.3 1014.3 1.6
25/12:30am 16.9 14.1 10.1 64 3.6 N 15 26 8 14 1014.5 1014.5 1.6
25/12:00am 17.1 14.2 9.5 61 4.0 N 15 24 8 13 1014.6 1014.6 1.6
 
Date/Time
EST
Temp
°C
App
Temp
°C
Dew
Point
°C
Rel
Hum
%
Delta-T
°C
Wind Press
QNH
hPa
Press
MSL
hPa
Rain since
9am
mm
Dir  Spd
km/h
Gust
km/h
Spd
kts
Gust
kts
24/11:30pm 17.0 13.3 9.4 61 4.0 NNW 19 33 10 18 1014.8 1014.8 1.6
24/11:00pm 17.4 13.7 9.3 59 4.2 NNW 19 32 10 17 1014.6 1014.6 1.6
24/10:30pm 17.6 13.6 9.2 58 4.4 NNW 20 33 11 18 1014.7 1014.7 1.6
24/10:00pm 18.0 13.3 9.1 56 4.6 NNW 24 33 13 18 1014.6 1014.6 1.6
24/09:30pm 17.8 14.7 8.9 56 4.6 NNW 15 26 8 14 1014.5 1014.5 1.6
24/09:00pm 17.5 14.0 8.9 57 4.4 NNW 17 28 9 15 1014.4 1014.4 1.6
24/08:30pm 17.4 13.0 8.8 57 4.4 N 22 35 12 19 1014.4 1014.4 1.6
24/08:00pm 17.2 12.4 8.9 58 4.3 NNW 24 44 13 24 1014.7 1014.7 1.6
24/07:41pm 17.2 11.6 8.9 58 4.3 N 28 46 15 25 1014.6 1014.6 1.6
24/07:30pm 17.1 12.7 9.0 59 4.2 N 22 44 12 24 1014.7 1014.7 1.6
24/07:00pm 17.5 13.6 9.4 59 4.2 NNW 20 33 11 18 1014.6 1014.6 1.6
24/06:30pm 18.0 14.7 9.4 57 4.5 N 17 30 9 16 1014.4 1014.4 1.6
24/06:00pm 18.2 14.8 9.0 55 4.8 N 17 28 9 15 1014.5 1014.5 1.6
24/05:30pm 17.5 14.1 9.2 58 4.3 N 17 24 9 13 1014.4 1014.4 1.6
24/05:00pm 17.6 12.8 8.7 56 4.6 N 24 39 13 21 1014.3 1014.3 1.6
24/04:30pm 17.8 13.7 8.6 55 4.7 N 20 35 11 19 1014.3 1014.3 1.6
24/04:02pm 18.9 13.3 8.8 52 5.3 N 28 50 15 27 1014.4 1014.4 1.6
24/04:00pm 19.1 13.9 8.7 51 5.4 N 26 50 14 27 1014.3 1014.3 1.6
24/03:30pm 19.7 14.9 8.7 49 5.7 NNW 24 46 13 25 1013.8 1013.8 1.6
24/03:00pm 19.3 14.8 8.6 50 5.6 N 22 33 12 18 1014.0 1014.0 1.6
24/02:30pm 18.1 12.3 8.1 52 5.1 N 28 43 15 23 1014.2 1014.2 1.6
24/02:00pm 17.8 13.6 8.4 54 4.8 N 20 33 11 18 1014.6 1014.6 1.6
24/01:30pm 18.1 13.5 8.1 52 5.1 N 22 33 12 18 1014.9 1014.9 1.6
24/01:00pm 17.7 13.6 8.0 53 4.9 N 19 32 10 17 1015.8 1015.8 1.6
24/12:30pm 16.2 12.7 8.7 61 3.8 N 17 26 9 14 1016.8 1016.8 1.6
24/12:00pm 15.4 12.0 9.1 66 3.2 N 17 28 9 15 1017.1 1017.1 1.6
24/11:30am 14.1 12.2 10.5 79 1.9 NNE 11 17 6 9 1017.7 1017.7 1.6
24/11:00am 13.9 11.5 9.9 77 2.1 NNE 13 20 7 11 1017.9 1017.9 1.6
24/10:30am 13.9 11.8 9.7 76 2.2 NNE 11 15 6 8 1019.0 1019.0 1.2
24/10:00am 14.1 11.3 8.5 69 2.8 NNE 13 19 7 10 1019.3 1019.3 0.6
24/09:30am 14.9 11.1 7.7 62 3.6 N 17 24 9 13 1019.9 1019.9 0.2
24/09:00am 16.1 10.8 4.8 47 5.3 NNW 22 39 12 21 1019.7 1019.7 0.0
24/08:30am 16.4 11.0 4.4 45 5.6 NNW 22 37 12 20 1019.3 1019.3 0.0
24/08:00am 16.7 12.2 4.4 44 5.8 NNW 17 32 9 17 1018.9 1018.9 0.0
24/07:30am 16.7 11.6 4.1 43 5.9 N 20 35 11 19 1017.8 1017.8 0.0
24/07:00am 16.7 11.2 4.1 43 5.9 N 22 35 12 19 1017.4 1017.4 0.0
24/06:30am 16.6 11.7 4.3 44 5.8 N 19 32 10 17 1017.3 1017.3 0.0
24/06:00am 16.8 11.7 4.2 43 5.9 N 20 32 11 17 1017.1 1017.1 0.0
24/05:30am 16.4 11.6 4.4 45 5.6 N 19 30 10 16 1017.6 1017.6 0.0
24/05:00am 16.3 12.3 4.7 46 5.5 N 15 24 8 13 1018.1 1018.1 0.0
24/04:30am 16.4 12.0 4.8 46 5.5 N 17 28 9 15 1018.4 1018.4 0.0
24/04:00am 16.7 12.3 4.7 45 5.7 N 17 26 9 14 1018.5 1018.5 0.0
24/03:30am 16.9 12.0 4.9 45 5.7 NNW 20 39 11 21 1018.6 1018.6 0.0
24/03:00am 17.3 12.9 4.6 43 6.0 NNW 17 24 9 13 1018.6 1018.6 0.0
24/02:30am 17.9 13.1 4.5 41 6.4 N 19 30 10 16 1019.0 1019.0 0.0
24/02:00am 18.0 13.0 4.6 41 6.4 N 20 32 11 17 1019.0 1019.0 0.0
24/01:30am 17.8 13.5 5.1 43 6.1 N 17 32 9 17 1018.9 1018.9 0.0
24/01:00am 17.7 13.1 5.6 45 5.9 N 19 33 10 18 1019.1 1019.1 0.0
24/12:30am 17.8 13.3 6.0 46 5.8 N 19 28 10 15 1019.2 1019.2 0.0
24/12:00am 17.7 13.2 6.3 47 5.6 N 19 30 10 16 1019.4 1019.4 0.0
 
Date/Time
EST
Temp
°C
App
Temp
°C
Dew
Point
°C
Rel
Hum
%
Delta-T
°C
Wind Press
QNH
hPa
Press
MSL
hPa
Rain since
9am
mm
Dir  Spd
km/h
Gust
km/h
Spd
kts
Gust
kts
23/11:30pm 17.9 13.5 6.7 48 5.6 N 19 32 10 17 1019.7 1019.7 0.0
23/11:00pm 18.3 13.0 6.8 47 5.7 N 24 41 13 22 1019.8 1019.8 0.0
23/10:30pm 18.4 13.1 6.9 47 5.8 N 24 43 13 23 1020.1 1020.1 0.0
23/10:00pm 18.4 13.9 6.9 47 5.7 N 20 33 11 18 1020.1 1020.1 0.0
23/09:30pm 17.9 13.4 7.0 49 5.4 N 20 32 11 17 1020.3 1020.3 0.0
23/09:00pm 17.8 13.6 7.5 51 5.2 N 19 35 10 19 1020.8 1020.8 0.0
23/08:30pm 17.6 13.3 7.9 53 4.9 N 20 33 11 18 1020.8 1020.8 0.0
23/08:00pm 17.4 14.5 8.0 54 4.8 N 13 26 7 14 1021.1 1021.1 0.0
23/07:30pm 17.5 13.5 8.4 55 4.7 N 19 30 10 16 1021.2 1021.2 0.0
23/07:00pm 17.5 13.5 8.4 55 4.6 N 19 37 10 20 1021.2 1021.2 0.0
23/06:30pm 17.6 14.0 8.2 54 4.8 N 17 30 9 16 1021.3 1021.3 0.0
23/06:00pm 17.7 13.8 8.6 55 4.7 N 19 32 10 17 1021.2 1021.2 0.0
23/05:30pm 18.4 14.7 8.1 51 5.3 N 17 26 9 14 1021.1 1021.1 0.0
23/05:00pm 19.2 15.0 7.6 47 5.9 N 19 30 10 16 1021.1 1021.1 0.0
23/04:30pm 19.7 16.0 7.8 46 6.1 NNW 17 26 9 14 1021.3 1021.3 0.0
23/04:00pm 20.5 16.2 7.8 44 6.5 N 20 35 11 19 1021.3 1021.3 0.0
23/03:30pm 20.8 16.0 7.4 42 6.9 NNW 22 35 12 19 1021.4 1021.4 0.0
23/03:00pm 20.8 16.1 7.8 43 6.7 N 22 35 12 19 1021.6 1021.6 0.0
23/02:30pm 20.6 15.9 7.9 44 6.6 N 22 37 12 20 1022.1 1022.1 0.0
23/02:00pm 20.6 15.7 8.3 45 6.4 N 24 35 13 19 1022.4 1022.4 0.0
23/01:30pm 21.0 16.3 7.6 42 6.9 N 22 32 12 17 1022.9 1022.9 0.0
23/01:00pm 20.9 16.8 8.5 45 6.5 N 20 33 11 18 1023.4 1023.4 0.0
23/12:30pm 20.3 15.7 8.3 46 6.2 N 22 33 12 18 1023.9 1023.9 0.0
23/12:00pm 20.1 15.1 8.1 46 6.2 N 24 37 13 20 1024.5 1024.5 0.0
23/11:30am 19.7 14.6 7.8 46 6.1 N 24 37 13 20 1025.0 1025.0 0.0
23/11:00am 19.4 15.9 8.7 50 5.6 N 17 26 9 14 1025.6 1025.6 0.0
23/10:30am 18.5 15.4 8.7 53 5.1 N 15 26 8 14 1026.0 1026.0 0.0
23/10:00am 17.5 14.0 8.9 57 4.4 N 17 28 9 15 1026.1 1026.1 0.0
23/09:30am 16.0 12.9 9.0 63 3.6 N 15 22 8 12 1026.4 1026.4 0.0
23/09:00am 13.8 11.4 8.8 72 2.5 N 11 15 6 8 1026.5 1026.5 0.0
23/08:30am 11.4 8.9 8.1 80 1.6 NNE 11 17 6 9 1026.5 1026.5 0.0
23/08:00am 10.2 7.5 7.3 82 1.4 NNE 11 15 6 8 1026.5 1026.5 0.0
23/07:30am 10.1 7.4 7.2 82 1.4 N 11 13 6 7 1026.4 1026.4 0.0
23/07:00am 10.1 7.0 7.3 83 1.3 NNE 13 17 7 9 1026.1 1026.1 0.0
23/06:30am 10.0 6.5 7.4 84 1.2 NNE 15 20 8 11 1025.9 1025.9 0.0
23/06:00am 10.2 7.2 7.6 84 1.2 N 13 19 7 10 1025.9 1025.9 0.0
23/05:30am 10.0 7.0 7.6 85 1.1 N 13 17 7 9 1025.9 1025.9 0.0
23/05:00am 10.1 7.5 7.7 85 1.1 NNE 11 19 6 10 1026.0 1026.0 0.0
23/04:30am 10.6 8.9 8.2 85 1.2 N 7 13 4 7 1026.0 1026.0 0.0
23/04:00am 10.9 8.8 8.3 84 1.3 N 9 13 5 7 1025.9 1025.9 0.0
23/03:30am 10.7 8.2 8.3 85 1.2 N 11 15 6 8 1026.2 1026.2 0.0
23/03:00am 10.8 8.7 8.4 85 1.2 NNE 9 13 5 7 1026.3 1026.3 0.0
23/02:30am 11.0 9.0 8.6 85 1.2 NNE 9 13 5 7 1026.3 1026.3 0.0
23/02:00am 11.4 9.4 8.8 84 1.3 NNE 9 13 5 7 1026.5 1026.5 0.0
23/01:30am 11.7 9.8 8.9 83 1.4 N 9 15 5 8 1026.8 1026.8 0.0
23/01:00am 12.0 10.1 9.0 82 1.5 NNE 9 15 5 8 1027.0 1027.0 0.0
23/12:30am 12.6 10.8 9.4 81 1.6 NNE 9 13 5 7 1027.4 1027.4 0.0
23/12:00am 12.8 10.6 9.4 80 1.7 NNE 11 13 6 7 1027.5 1027.5 0.0
 
Date/Time
EST
Temp
°C
App
Temp
°C
Dew
Point
°C
Rel
Hum
%
Delta-T
°C
Wind Press
QNH
hPa
Press
MSL
hPa
Rain since
9am
mm
Dir  Spd
km/h
Gust
km/h
Spd
kts
Gust
kts
22/11:30pm 13.2 11.5 9.8 80 1.7 NNE 9 13 5 7 1027.5 1027.5 0.0

Other formats

Comma delimited format used in spreadsheet applications
http://www.bom.gov.au/fwo/IDV60801/IDV60801.95936.axf

JavaScript Object Notation format (JSON) in row-major order
http://www.bom.gov.au/fwo/IDV60801/IDV60801.95936.json

Data quality

Most of these data are generated automatically and are frequently updated. Quality checks on data are not normally performed. It is possible for incorrect values to appear. Refer to information at About Latest Weather Observations and please check the disclaimer before using these data.